sensor_id;sensor_type;location;lat;lon;timestamp;pressure;altitude;pressure_sealevel;temperature;humidity
7200;BME280;3641;49.082;8.200;2023-03-22T00:00:34;100157.47;;;10.06;73.71
7200;BME280;3641;49.082;8.200;2023-03-22T00:03:00;100150.47;;;9.88;73.78
7200;BME280;3641;49.082;8.200;2023-03-22T00:05:27;100149.94;;;9.93;74.18
7200;BME280;3641;49.082;8.200;2023-03-22T00:07:54;100154.97;;;9.81;75.28
7200;BME280;3641;49.082;8.200;2023-03-22T00:10:22;100144.22;;;9.64;76.52
7200;BME280;3641;49.082;8.200;2023-03-22T00:12:49;100149.28;;;9.91;75.31
7200;BME280;3641;49.082;8.200;2023-03-22T00:15:17;100149.13;;;9.69;75.92
7200;BME280;3641;49.082;8.200;2023-03-22T00:17:44;100145.81;;;9.59;76.48
7200;BME280;3641;49.082;8.200;2023-03-22T00:20:11;100143.56;;;9.62;76.40
7200;BME280;3641;49.082;8.200;2023-03-22T00:22:38;100140.94;;;9.69;75.46
7200;BME280;3641;49.082;8.200;2023-03-22T00:25:05;100146.88;;;9.73;76.29
7200;BME280;3641;49.082;8.200;2023-03-22T00:27:32;100140.56;;;9.57;76.82
7200;BME280;3641;49.082;8.200;2023-03-22T00:29:58;100139.78;;;9.63;76.83
7200;BME280;3641;49.082;8.200;2023-03-22T00:32:26;100133.41;;;9.56;76.82
7200;BME280;3641;49.082;8.200;2023-03-22T00:34:52;100138.38;;;9.53;77.01
7200;BME280;3641;49.082;8.200;2023-03-22T00:37:19;100127.97;;;9.56;77.31
7200;BME280;3641;49.082;8.200;2023-03-22T00:39:45;100124.94;;;9.51;77.63
7200;BME280;3641;49.082;8.200;2023-03-22T00:42:12;100118.53;;;9.44;77.44
7200;BME280;3641;49.082;8.200;2023-03-22T00:44:38;100117.91;;;9.57;77.24
7200;BME280;3641;49.082;8.200;2023-03-22T00:47:05;100123.16;;;9.58;76.65
7200;BME280;3641;49.082;8.200;2023-03-22T00:49:33;100119.50;;;9.51;77.13
7200;BME280;3641;49.082;8.200;2023-03-22T00:52:01;100119.06;;;9.39;77.40
7200;BME280;3641;49.082;8.200;2023-03-22T00:54:28;100121.53;;;9.49;76.63
7200;BME280;3641;49.082;8.200;2023-03-22T00:56:54;100115.44;;;9.47;76.69
7200;BME280;3641;49.082;8.200;2023-03-22T00:59:21;100110.13;;;9.69;74.35
7200;BME280;3641;49.082;8.200;2023-03-22T01:01:48;100109.25;;;9.53;76.73
7200;BME280;3641;49.082;8.200;2023-03-22T01:04:14;100106.63;;;9.60;75.79
7200;BME280;3641;49.082;8.200;2023-03-22T01:06:43;100094.25;;;9.34;77.51
7200;BME280;3641;49.082;8.200;2023-03-22T01:09:11;100096.00;;;9.65;74.85
7200;BME280;3641;49.082;8.200;2023-03-22T01:11:41;100093.75;;;9.54;76.00
7200;BME280;3641;49.082;8.200;2023-03-22T01:14:07;100085.38;;;9.55;75.08
7200;BME280;3641;49.082;8.200;2023-03-22T01:16:34;100093.41;;;9.72;74.39
7200;BME280;3641;49.082;8.200;2023-03-22T01:19:01;100079.00;;;9.78;73.73
7200;BME280;3641;49.082;8.200;2023-03-22T01:21:28;100091.44;;;9.66;74.66
7200;BME280;3641;49.082;8.200;2023-03-22T01:23:56;100091.16;;;9.75;74.46
7200;BME280;3641;49.082;8.200;2023-03-22T01:26:22;100087.84;;;9.65;73.85
7200;BME280;3641;49.082;8.200;2023-03-22T01:28:48;100083.34;;;9.57;75.64
7200;BME280;3641;49.082;8.200;2023-03-22T01:31:15;100077.16;;;9.78;73.27
7200;BME280;3641;49.082;8.200;2023-03-22T01:33:41;100077.81;;;9.66;74.27
7200;BME280;3641;49.082;8.200;2023-03-22T01:36:08;100070.38;;;9.74;73.35
7200;BME280;3641;49.082;8.200;2023-03-22T01:38:35;100079.97;;;9.85;72.72
7200;BME280;3641;49.082;8.200;2023-03-22T01:41:03;100077.44;;;9.84;72.56
7200;BME280;3641;49.082;8.200;2023-03-22T01:43:30;100074.06;;;9.81;72.48
7200;BME280;3641;49.082;8.200;2023-03-22T01:45:56;100072.44;;;9.87;71.91
7200;BME280;3641;49.082;8.200;2023-03-22T01:48:25;100067.38;;;9.69;73.10
7200;BME280;3641;49.082;8.200;2023-03-22T01:50:59;100072.53;;;9.64;73.23
7200;BME280;3641;49.082;8.200;2023-03-22T01:53:29;100076.19;;;9.71;72.71
7200;BME280;3641;49.082;8.200;2023-03-22T01:55:58;100076.78;;;9.05;77.69
7200;BME280;3641;49.082;8.200;2023-03-22T01:58:26;100073.91;;;9.07;77.82
7200;BME280;3641;49.082;8.200;2023-03-22T02:00:53;100070.00;;;9.01;77.72
7200;BME280;3641;49.082;8.200;2023-03-22T02:03:25;100057.31;;;9.32;74.82
7200;BME280;3641;49.082;8.200;2023-03-22T02:05:56;100070.03;;;9.39;74.45
7200;BME280;3641;49.082;8.200;2023-03-22T02:08:22;100062.75;;;9.17;76.70
7200;BME280;3641;49.082;8.200;2023-03-22T02:10:50;100068.41;;;9.30;74.76
7200;BME280;3641;49.082;8.200;2023-03-22T02:13:27;100075.00;;;9.36;73.83
7200;BME280;3641;49.082;8.200;2023-03-22T02:16:07;100076.72;;;9.52;72.29
7200;BME280;3641;49.082;8.200;2023-03-22T02:18:52;100074.97;;;8.98;77.68
7200;BME280;3641;49.082;8.200;2023-03-22T02:21:46;100072.88;;;9.08;75.40
7200;BME280;3641;49.082;8.200;2023-03-22T02:24:36;100068.19;;;9.40;73.20
7200;BME280;3641;49.082;8.200;2023-03-22T02:27:26;100070.94;;;9.32;73.76
7200;BME280;3641;49.082;8.200;2023-03-22T02:30:17;100069.63;;;9.27;74.56
7200;BME280;3641;49.082;8.200;2023-03-22T02:33:00;100070.25;;;9.15;74.07
7200;BME280;3641;49.082;8.200;2023-03-22T02:35:40;100059.25;;;9.08;75.16
7200;BME280;3641;49.082;8.200;2023-03-22T02:41:14;100058.03;;;9.11;73.85
7200;BME280;3641;49.082;8.200;2023-03-22T02:43:51;100055.38;;;9.02;73.86
7200;BME280;3641;49.082;8.200;2023-03-22T02:46:25;100058.66;;;8.98;73.36
7200;BME280;3641;49.082;8.200;2023-03-22T02:49:01;100059.25;;;8.85;74.79
7200;BME280;3641;49.082;8.200;2023-03-22T02:51:33;100061.19;;;8.76;74.48
7200;BME280;3641;49.082;8.200;2023-03-22T02:54:07;100054.00;;;8.83;74.19
7200;BME280;3641;49.082;8.200;2023-03-22T02:56:40;100063.50;;;8.87;73.52
7200;BME280;3641;49.082;8.200;2023-03-22T02:59:10;100055.03;;;8.82;74.06
7200;BME280;3641;49.082;8.200;2023-03-22T03:01:39;100054.16;;;8.82;75.01
7200;BME280;3641;49.082;8.200;2023-03-22T03:04:10;100046.84;;;8.19;79.19
7200;BME280;3641;49.082;8.200;2023-03-22T03:06:40;100042.56;;;8.65;74.63
7200;BME280;3641;49.082;8.200;2023-03-22T03:09:11;100042.56;;;8.65;74.69
7200;BME280;3641;49.082;8.200;2023-03-22T03:11:44;100048.13;;;8.71;74.42
7200;BME280;3641;49.082;8.200;2023-03-22T03:14:19;100054.97;;;7.96;81.54
7200;BME280;3641;49.082;8.200;2023-03-22T03:16:49;100051.75;;;7.85;82.12
7200;BME280;3641;49.082;8.200;2023-03-22T03:19:26;100050.28;;;8.13;80.04
7200;BME280;3641;49.082;8.200;2023-03-22T03:22:02;100053.34;;;7.62;83.86
7200;BME280;3641;49.082;8.200;2023-03-22T03:24:37;100046.69;;;8.21;78.39
7200;BME280;3641;49.082;8.200;2023-03-22T03:27:11;100053.88;;;8.06;79.89
7200;BME280;3641;49.082;8.200;2023-03-22T03:29:43;100044.44;;;7.93;79.21
7200;BME280;3641;49.082;8.200;2023-03-22T03:32:15;100049.97;;;8.08;79.21
7200;BME280;3641;49.082;8.200;2023-03-22T03:34:46;100053.06;;;7.97;81.57
7200;BME280;3641;49.082;8.200;2023-03-22T03:37:17;100052.28;;;8.19;77.77
7200;BME280;3641;49.082;8.200;2023-03-22T03:39:51;100054.53;;;8.16;80.02
7200;BME280;3641;49.082;8.200;2023-03-22T03:42:22;100052.78;;;8.31;76.79
7200;BME280;3641;49.082;8.200;2023-03-22T03:44:51;100055.25;;;8.49;74.81
7200;BME280;3641;49.082;8.200;2023-03-22T03:47:18;100056.44;;;8.39;77.45
7200;BME280;3641;49.082;8.200;2023-03-22T03:49:45;100055.66;;;8.30;77.54
7200;BME280;3641;49.082;8.200;2023-03-22T03:52:11;100050.66;;;8.42;75.56
7200;BME280;3641;49.082;8.200;2023-03-22T03:54:38;100050.50;;;8.43;76.00
7200;BME280;3641;49.082;8.200;2023-03-22T03:57:05;100042.13;;;8.13;81.19
7200;BME280;3641;49.082;8.200;2023-03-22T03:59:33;100045.19;;;8.18;80.52
7200;BME280;3641;49.082;8.200;2023-03-22T04:02:00;100048.78;;;8.11;81.85
7200;BME280;3641;49.082;8.200;2023-03-22T04:04:27;100036.56;;;8.07;82.40
7200;BME280;3641;49.082;8.200;2023-03-22T04:06:55;100032.47;;;8.42;76.41
7200;BME280;3641;49.082;8.200;2023-03-22T04:09:22;100032.69;;;8.32;79.05
7200;BME280;3641;49.082;8.200;2023-03-22T04:11:48;100035.63;;;8.23;81.13
7200;BME280;3641;49.082;8.200;2023-03-22T04:14:15;100025.50;;;8.08;82.32
7200;BME280;3641;49.082;8.200;2023-03-22T04:16:43;100026.75;;;7.97;83.39
7200;BME280;3641;49.082;8.200;2023-03-22T04:19:10;100031.50;;;7.95;84.17
7200;BME280;3641;49.082;8.200;2023-03-22T04:21:36;100028.31;;;7.92;84.41
7200;BME280;3641;49.082;8.200;2023-03-22T04:24:03;100034.84;;;8.06;83.16
7200;BME280;3641;49.082;8.200;2023-03-22T04:26:30;100035.06;;;8.04;84.32
7200;BME280;3641;49.082;8.200;2023-03-22T04:28:56;100026.31;;;8.17;82.55
7200;BME280;3641;49.082;8.200;2023-03-22T04:31:23;100026.63;;;8.22;82.05
7200;BME280;3641;49.082;8.200;2023-03-22T04:33:51;100018.06;;;8.02;83.85
7200;BME280;3641;49.082;8.200;2023-03-22T04:36:21;100015.97;;;8.12;83.59
7200;BME280;3641;49.082;8.200;2023-03-22T04:38:48;100012.75;;;8.09;83.34
7200;BME280;3641;49.082;8.200;2023-03-22T04:41:14;100011.44;;;8.05;83.93
7200;BME280;3641;49.082;8.200;2023-03-22T04:43:41;100017.19;;;8.10;82.88
7200;BME280;3641;49.082;8.200;2023-03-22T04:46:12;100008.53;;;8.06;83.97
7200;BME280;3641;49.082;8.200;2023-03-22T04:48:40;100012.25;;;8.05;83.72
7200;BME280;3641;49.082;8.200;2023-03-22T04:51:09;100016.13;;;8.42;79.07
7200;BME280;3641;49.082;8.200;2023-03-22T04:53:36;100016.66;;;8.37;80.61
7200;BME280;3641;49.082;8.200;2023-03-22T04:56:04;100010.41;;;8.37;80.82
7200;BME280;3641;49.082;8.200;2023-03-22T04:58:31;100016.00;;;8.44;79.21
7200;BME280;3641;49.082;8.200;2023-03-22T05:00:58;100020.25;;;8.38;81.01
7200;BME280;3641;49.082;8.200;2023-03-22T05:03:25;100026.69;;;8.45;80.25
7200;BME280;3641;49.082;8.200;2023-03-22T05:05:53;100028.31;;;8.23;81.83
7200;BME280;3641;49.082;8.200;2023-03-22T05:08:23;100024.03;;;8.29;81.05
7200;BME280;3641;49.082;8.200;2023-03-22T05:10:50;100021.50;;;8.27;81.89
7200;BME280;3641;49.082;8.200;2023-03-22T05:13:17;100026.72;;;8.37;79.31
7200;BME280;3641;49.082;8.200;2023-03-22T05:15:44;100028.78;;;8.35;80.44
7200;BME280;3641;49.082;8.200;2023-03-22T05:18:11;100033.78;;;8.54;79.43
7200;BME280;3641;49.082;8.200;2023-03-22T05:20:39;100028.75;;;8.43;79.01
7200;BME280;3641;49.082;8.200;2023-03-22T05:23:05;100036.41;;;8.40;79.76
7200;BME280;3641;49.082;8.200;2023-03-22T05:25:35;100036.03;;;8.51;79.63
7200;BME280;3641;49.082;8.200;2023-03-22T05:28:02;100026.88;;;8.35;80.91
7200;BME280;3641;49.082;8.200;2023-03-22T05:30:29;100032.25;;;8.21;81.59
7200;BME280;3641;49.082;8.200;2023-03-22T05:32:57;100032.69;;;8.01;82.94
7200;BME280;3641;49.082;8.200;2023-03-22T05:35:27;100031.19;;;8.30;80.35
7200;BME280;3641;49.082;8.200;2023-03-22T05:37:54;100027.56;;;8.46;78.64
7200;BME280;3641;49.082;8.200;2023-03-22T05:40:21;100037.06;;;8.42;78.47
7200;BME280;3641;49.082;8.200;2023-03-22T05:42:49;100034.97;;;8.21;81.09
7200;BME280;3641;49.082;8.200;2023-03-22T05:45:16;100038.63;;;8.44;79.09
7200;BME280;3641;49.082;8.200;2023-03-22T05:47:43;100039.56;;;8.51;77.77
7200;BME280;3641;49.082;8.200;2023-03-22T05:50:12;100045.97;;;8.27;80.70
7200;BME280;3641;49.082;8.200;2023-03-22T05:52:39;100044.56;;;8.40;79.12
7200;BME280;3641;49.082;8.200;2023-03-22T05:55:07;100044.91;;;8.45;78.71
7200;BME280;3641;49.082;8.200;2023-03-22T05:57:34;100048.78;;;8.42;80.04
7200;BME280;3641;49.082;8.200;2023-03-22T06:00:02;100044.06;;;8.44;79.11
7200;BME280;3641;49.082;8.200;2023-03-22T06:02:33;100046.25;;;8.49;79.41
7200;BME280;3641;49.082;8.200;2023-03-22T06:05:00;100048.69;;;8.27;79.44
7200;BME280;3641;49.082;8.200;2023-03-22T06:07:26;100047.94;;;8.42;80.55
7200;BME280;3641;49.082;8.200;2023-03-22T06:09:53;100046.34;;;8.24;81.65
7200;BME280;3641;49.082;8.200;2023-03-22T06:12:19;100041.06;;;8.23;81.46
7200;BME280;3641;49.082;8.200;2023-03-22T06:14:48;100045.03;;;8.12;82.20
7200;BME280;3641;49.082;8.200;2023-03-22T06:17:16;100036.97;;;8.27;81.96
7200;BME280;3641;49.082;8.200;2023-03-22T06:19:43;100036.66;;;8.22;82.48
7200;BME280;3641;49.082;8.200;2023-03-22T06:22:10;100038.75;;;8.11;83.16
7200;BME280;3641;49.082;8.200;2023-03-22T06:24:36;100038.34;;;8.23;81.95
7200;BME280;3641;49.082;8.200;2023-03-22T06:27:04;100023.63;;;8.17;82.80
7200;BME280;3641;49.082;8.200;2023-03-22T06:29:31;100041.34;;;8.36;81.95
7200;BME280;3641;49.082;8.200;2023-03-22T06:31:58;100044.56;;;8.40;81.52
7200;BME280;3641;49.082;8.200;2023-03-22T06:34:26;100044.06;;;8.67;79.20
7200;BME280;3641;49.082;8.200;2023-03-22T06:36:53;100044.88;;;8.76;78.29
7200;BME280;3641;49.082;8.200;2023-03-22T06:39:19;100040.28;;;8.45;80.77
7200;BME280;3641;49.082;8.200;2023-03-22T06:41:46;100047.31;;;8.63;80.02
7200;BME280;3641;49.082;8.200;2023-03-22T06:44:13;100047.75;;;8.51;80.81
7200;BME280;3641;49.082;8.200;2023-03-22T06:46:40;100050.56;;;8.66;79.98
7200;BME280;3641;49.082;8.200;2023-03-22T06:49:06;100054.72;;;8.77;79.74
7200;BME280;3641;49.082;8.200;2023-03-22T06:51:34;100060.47;;;8.82;79.71
7200;BME280;3641;49.082;8.200;2023-03-22T06:54:01;100052.38;;;8.97;78.05
7200;BME280;3641;49.082;8.200;2023-03-22T06:56:28;100059.81;;;9.03;78.93
7200;BME280;3641;49.082;8.200;2023-03-22T06:58:54;100060.94;;;9.09;78.96
7200;BME280;3641;49.082;8.200;2023-03-22T07:01:22;100055.50;;;9.09;78.06
7200;BME280;3641;49.082;8.200;2023-03-22T07:03:49;100051.84;;;9.17;78.28
7200;BME280;3641;49.082;8.200;2023-03-22T07:06:15;100050.28;;;9.22;77.55
7200;BME280;3641;49.082;8.200;2023-03-22T07:08:43;100051.97;;;9.23;78.50
7200;BME280;3641;49.082;8.200;2023-03-22T07:11:10;100053.66;;;9.24;77.53
7200;BME280;3641;49.082;8.200;2023-03-22T07:13:36;100057.72;;;9.29;77.47
7200;BME280;3641;49.082;8.200;2023-03-22T07:16:03;100057.47;;;9.38;77.33
7200;BME280;3641;49.082;8.200;2023-03-22T07:18:30;100060.66;;;9.42;77.18
7200;BME280;3641;49.082;8.200;2023-03-22T07:20:56;100064.13;;;9.51;76.20
7200;BME280;3641;49.082;8.200;2023-03-22T07:23:23;100067.81;;;9.43;76.72
7200;BME280;3641;49.082;8.200;2023-03-22T07:25:51;100058.03;;;9.49;77.48
7200;BME280;3641;49.082;8.200;2023-03-22T07:28:20;100061.91;;;9.54;76.70
7200;BME280;3641;49.082;8.200;2023-03-22T07:30:46;100070.38;;;9.59;76.22
7200;BME280;3641;49.082;8.200;2023-03-22T07:33:13;100068.66;;;9.58;76.48
7200;BME280;3641;49.082;8.200;2023-03-22T07:35:40;100069.16;;;9.77;75.62
7200;BME280;3641;49.082;8.200;2023-03-22T07:38:06;100071.13;;;9.68;76.29
7200;BME280;3641;49.082;8.200;2023-03-22T07:40:32;100066.34;;;9.85;75.71
7200;BME280;3641;49.082;8.200;2023-03-22T07:43:01;100072.72;;;9.92;75.38
7200;BME280;3641;49.082;8.200;2023-03-22T07:45:27;100065.94;;;10.03;75.07
7200;BME280;3641;49.082;8.200;2023-03-22T07:47:54;100070.09;;;9.99;75.60
7200;BME280;3641;49.082;8.200;2023-03-22T07:50:20;100066.63;;;10.05;75.53
7200;BME280;3641;49.082;8.200;2023-03-22T07:52:47;100060.59;;;10.10;75.36
7200;BME280;3641;49.082;8.200;2023-03-22T07:55:13;100057.28;;;10.14;74.79
7200;BME280;3641;49.082;8.200;2023-03-22T07:57:40;100055.13;;;10.10;75.16
7200;BME280;3641;49.082;8.200;2023-03-22T08:00:09;100057.97;;;10.16;75.11
7200;BME280;3641;49.082;8.200;2023-03-22T08:02:36;100059.44;;;10.19;74.89
7200;BME280;3641;49.082;8.200;2023-03-22T08:05:03;100064.75;;;10.35;74.41
7200;BME280;3641;49.082;8.200;2023-03-22T08:07:31;100056.56;;;10.35;74.50
7200;BME280;3641;49.082;8.200;2023-03-22T08:09:58;100065.84;;;10.41;74.41
7200;BME280;3641;49.082;8.200;2023-03-22T08:12:24;100056.25;;;10.45;74.52
7200;BME280;3641;49.082;8.200;2023-03-22T08:14:52;100060.53;;;10.54;74.36
7200;BME280;3641;49.082;8.200;2023-03-22T08:17:20;100053.22;;;10.55;73.69
7200;BME280;3641;49.082;8.200;2023-03-22T08:19:46;100048.59;;;10.56;74.02
7200;BME280;3641;49.082;8.200;2023-03-22T08:22:14;100052.44;;;10.61;73.44
7200;BME280;3641;49.082;8.200;2023-03-22T08:24:40;100052.00;;;10.79;73.38
7200;BME280;3641;49.082;8.200;2023-03-22T08:27:07;100048.13;;;10.88;73.32
7200;BME280;3641;49.082;8.200;2023-03-22T08:29:33;100048.38;;;10.94;73.64
7200;BME280;3641;49.082;8.200;2023-03-22T08:32:01;100053.88;;;11.00;72.62
7200;BME280;3641;49.082;8.200;2023-03-22T08:34:30;100048.47;;;11.07;71.46
7200;BME280;3641;49.082;8.200;2023-03-22T08:36:57;100049.78;;;11.11;72.21
7200;BME280;3641;49.082;8.200;2023-03-22T08:39:23;100051.94;;;11.16;71.57
7200;BME280;3641;49.082;8.200;2023-03-22T08:41:50;100038.53;;;11.21;71.52
7200;BME280;3641;49.082;8.200;2023-03-22T08:44:16;100040.28;;;11.29;71.53
7200;BME280;3641;49.082;8.200;2023-03-22T08:46:43;100036.09;;;11.33;71.50
7200;BME280;3641;49.082;8.200;2023-03-22T08:49:09;100043.06;;;11.35;70.76
7200;BME280;3641;49.082;8.200;2023-03-22T08:51:38;100035.09;;;11.40;71.42
7200;BME280;3641;49.082;8.200;2023-03-22T08:54:05;100030.34;;;11.49;70.54
7200;BME280;3641;49.082;8.200;2023-03-22T08:56:31;100030.59;;;11.54;70.06
7200;BME280;3641;49.082;8.200;2023-03-22T08:59:04;100030.84;;;11.66;71.27
7200;BME280;3641;49.082;8.200;2023-03-22T09:01:31;100039.38;;;11.78;70.46
7200;BME280;3641;49.082;8.200;2023-03-22T09:03:57;100029.38;;;11.92;70.41
7200;BME280;3641;49.082;8.200;2023-03-22T09:06:24;100018.56;;;11.84;70.14
7200;BME280;3641;49.082;8.200;2023-03-22T09:08:52;100010.69;;;11.95;69.93
7200;BME280;3641;49.082;8.200;2023-03-22T09:11:19;100006.25;;;12.01;69.75
7200;BME280;3641;49.082;8.200;2023-03-22T09:13:46;100016.44;;;12.14;69.61
7200;BME280;3641;49.082;8.200;2023-03-22T09:16:12;100001.91;;;12.13;69.63
7200;BME280;3641;49.082;8.200;2023-03-22T09:18:39;100000.69;;;12.29;69.98
7200;BME280;3641;49.082;8.200;2023-03-22T09:21:07;99995.72;;;12.53;67.88
7200;BME280;3641;49.082;8.200;2023-03-22T09:23:34;99994.03;;;12.59;68.79
7200;BME280;3641;49.082;8.200;2023-03-22T09:26:04;99989.44;;;12.66;67.00
7200;BME280;3641;49.082;8.200;2023-03-22T09:28:32;99991.56;;;12.84;65.93
7200;BME280;3641;49.082;8.200;2023-03-22T09:30:59;99993.03;;;12.86;65.29
7200;BME280;3641;49.082;8.200;2023-03-22T09:33:26;99997.25;;;12.82;65.08
7200;BME280;3641;49.082;8.200;2023-03-22T09:35:53;99986.94;;;12.84;65.77
7200;BME280;3641;49.082;8.200;2023-03-22T09:38:21;99989.25;;;13.07;65.59
7200;BME280;3641;49.082;8.200;2023-03-22T09:40:51;99992.41;;;13.11;65.43
7200;BME280;3641;49.082;8.200;2023-03-22T09:43:26;99991.38;;;13.39;64.28
7200;BME280;3641;49.082;8.200;2023-03-22T09:45:54;99981.03;;;13.27;65.14
7200;BME280;3641;49.082;8.200;2023-03-22T09:48:25;99978.50;;;13.26;66.26
7200;BME280;3641;49.082;8.200;2023-03-22T09:50:53;99975.78;;;13.33;64.24
7200;BME280;3641;49.082;8.200;2023-03-22T09:53:23;99980.22;;;13.40;64.31
7200;BME280;3641;49.082;8.200;2023-03-22T09:55:54;99979.53;;;13.58;63.38
7200;BME280;3641;49.082;8.200;2023-03-22T09:58:24;99966.84;;;13.71;62.85
7200;BME280;3641;49.082;8.200;2023-03-22T10:00:57;99962.66;;;13.61;63.83
7200;BME280;3641;49.082;8.200;2023-03-22T10:03:37;99962.63;;;13.68;62.88
7200;BME280;3641;49.082;8.200;2023-03-22T10:06:11;99976.72;;;13.78;62.15
7200;BME280;3641;49.082;8.200;2023-03-22T10:08:58;99964.59;;;14.13;61.63
7200;BME280;3641;49.082;8.200;2023-03-22T10:11:38;99959.00;;;14.26;61.19
7200;BME280;3641;49.082;8.200;2023-03-22T10:14:18;99959.53;;;14.48;60.43
7200;BME280;3641;49.082;8.200;2023-03-22T10:16:51;99959.91;;;14.59;59.06
7200;BME280;3641;49.082;8.200;2023-03-22T10:19:20;99950.22;;;14.49;58.47
7200;BME280;3641;49.082;8.200;2023-03-22T10:21:55;99955.47;;;14.58;58.83
7200;BME280;3641;49.082;8.200;2023-03-22T10:24:26;99957.97;;;14.66;59.77
7200;BME280;3641;49.082;8.200;2023-03-22T10:26:55;99955.50;;;14.51;58.94
7200;BME280;3641;49.082;8.200;2023-03-22T10:29:23;99948.72;;;14.60;59.52
7200;BME280;3641;49.082;8.200;2023-03-22T10:31:53;99935.09;;;14.72;59.79
7200;BME280;3641;49.082;8.200;2023-03-22T10:34:22;99940.59;;;14.72;58.10
7200;BME280;3641;49.082;8.200;2023-03-22T10:36:50;99936.63;;;14.68;58.48
7200;BME280;3641;49.082;8.200;2023-03-22T10:39:26;99940.31;;;14.80;58.02
7200;BME280;3641;49.082;8.200;2023-03-22T10:41:55;99949.53;;;14.93;58.52
7200;BME280;3641;49.082;8.200;2023-03-22T10:44:25;99938.81;;;15.10;56.71
7200;BME280;3641;49.082;8.200;2023-03-22T10:46:54;99933.63;;;15.01;58.24
7200;BME280;3641;49.082;8.200;2023-03-22T10:49:24;99933.94;;;15.12;56.65
7200;BME280;3641;49.082;8.200;2023-03-22T10:51:55;99937.69;;;15.17;57.01
7200;BME280;3641;49.082;8.200;2023-03-22T10:54:24;99923.59;;;15.32;56.87
7200;BME280;3641;49.082;8.200;2023-03-22T10:56:51;99929.09;;;15.32;57.20
7200;BME280;3641;49.082;8.200;2023-03-22T10:59:46;99928.41;;;15.55;55.71
7200;BME280;3641;49.082;8.200;2023-03-22T11:02:19;99926.81;;;15.66;56.09
7200;BME280;3641;49.082;8.200;2023-03-22T11:04:47;99921.63;;;15.95;54.79
7200;BME280;3641;49.082;8.200;2023-03-22T11:07:26;99929.09;;;15.51;55.66
7200;BME280;3641;49.082;8.200;2023-03-22T11:09:57;99919.00;;;15.63;55.05
7200;BME280;3641;49.082;8.200;2023-03-22T11:12:24;99923.69;;;15.62;54.94
7200;BME280;3641;49.082;8.200;2023-03-22T11:14:51;99918.88;;;15.58;56.34
7200;BME280;3641;49.082;8.200;2023-03-22T11:17:21;99917.34;;;15.62;55.88
7200;BME280;3641;49.082;8.200;2023-03-22T11:19:51;99912.34;;;15.52;55.34
7200;BME280;3641;49.082;8.200;2023-03-22T11:22:23;99906.56;;;15.60;54.90
7200;BME280;3641;49.082;8.200;2023-03-22T11:24:51;99907.09;;;15.69;53.46
7200;BME280;3641;49.082;8.200;2023-03-22T11:27:23;99904.28;;;15.57;53.39
7200;BME280;3641;49.082;8.200;2023-03-22T11:29:52;99909.47;;;15.66;53.18
7200;BME280;3641;49.082;8.200;2023-03-22T11:32:25;99905.56;;;15.55;54.25
7200;BME280;3641;49.082;8.200;2023-03-22T11:34:59;99904.94;;;15.71;52.65
7200;BME280;3641;49.082;8.200;2023-03-22T11:37:26;99899.56;;;15.83;52.42
7200;BME280;3641;49.082;8.200;2023-03-22T11:39:59;99898.09;;;15.80;53.95
7200;BME280;3641;49.082;8.200;2023-03-22T11:42:26;99906.44;;;15.92;53.50
7200;BME280;3641;49.082;8.200;2023-03-22T11:44:54;99888.81;;;16.54;51.32
7200;BME280;3641;49.082;8.200;2023-03-22T11:47:24;99886.25;;;16.41;51.68
7200;BME280;3641;49.082;8.200;2023-03-22T11:49:51;99883.06;;;16.56;51.84
7200;BME280;3641;49.082;8.200;2023-03-22T11:52:22;99893.59;;;16.47;51.55
7200;BME280;3641;49.082;8.200;2023-03-22T11:54:50;99883.31;;;16.24;51.67
7200;BME280;3641;49.082;8.200;2023-03-22T11:57:20;99880.56;;;16.24;52.43
7200;BME280;3641;49.082;8.200;2023-03-22T11:59:54;99882.25;;;16.25;53.10
7200;BME280;3641;49.082;8.200;2023-03-22T12:02:25;99867.28;;;16.63;50.84
7200;BME280;3641;49.082;8.200;2023-03-22T12:04:57;99871.94;;;16.74;51.04
7200;BME280;3641;49.082;8.200;2023-03-22T12:07:27;99867.84;;;16.77;51.02
7200;BME280;3641;49.082;8.200;2023-03-22T12:09:57;99868.66;;;17.08;48.45
7200;BME280;3641;49.082;8.200;2023-03-22T12:12:28;99872.25;;;16.96;49.12
7200;BME280;3641;49.082;8.200;2023-03-22T12:14:59;99853.41;;;17.05;47.89
7200;BME280;3641;49.082;8.200;2023-03-22T12:17:35;99849.09;;;17.09;48.53
7200;BME280;3641;49.082;8.200;2023-03-22T12:20:09;99851.38;;;17.00;50.09
7200;BME280;3641;49.082;8.200;2023-03-22T12:22:42;99846.09;;;17.22;48.95
7200;BME280;3641;49.082;8.200;2023-03-22T12:25:14;99835.91;;;16.99;50.22
7200;BME280;3641;49.082;8.200;2023-03-22T12:27:44;99846.91;;;17.23;48.37
7200;BME280;3641;49.082;8.200;2023-03-22T12:30:15;99841.88;;;17.32;48.51
7200;BME280;3641;49.082;8.200;2023-03-22T12:32:47;99835.78;;;17.18;51.49
7200;BME280;3641;49.082;8.200;2023-03-22T12:35:17;99827.59;;;17.35;48.25
7200;BME280;3641;49.082;8.200;2023-03-22T12:37:47;99826.16;;;17.44;49.19
7200;BME280;3641;49.082;8.200;2023-03-22T12:40:20;99824.69;;;17.41;48.13
7200;BME280;3641;49.082;8.200;2023-03-22T12:42:53;99813.75;;;17.58;48.09
7200;BME280;3641;49.082;8.200;2023-03-22T12:45:25;99815.56;;;17.53;48.35
7200;BME280;3641;49.082;8.200;2023-03-22T12:47:57;99808.50;;;17.45;48.00
7200;BME280;3641;49.082;8.200;2023-03-22T12:50:30;99802.28;;;17.26;47.88
7200;BME280;3641;49.082;8.200;2023-03-22T12:53:00;99804.13;;;17.20;49.05
7200;BME280;3641;49.082;8.200;2023-03-22T12:55:30;99802.19;;;17.21;49.81
7200;BME280;3641;49.082;8.200;2023-03-22T12:57:58;99791.28;;;17.14;48.70
7200;BME280;3641;49.082;8.200;2023-03-22T13:00:27;99789.59;;;17.13;49.36
7200;BME280;3641;49.082;8.200;2023-03-22T13:02:58;99786.41;;;17.04;50.40
7200;BME280;3641;49.082;8.200;2023-03-22T13:05:29;99782.44;;;17.00;50.22
7200;BME280;3641;49.082;8.200;2023-03-22T13:07:57;99777.78;;;17.01;49.84
7200;BME280;3641;49.082;8.200;2023-03-22T13:10:39;99772.25;;;17.01;49.18
7200;BME280;3641;49.082;8.200;2023-03-22T13:13:41;99771.66;;;16.99;49.83
7200;BME280;3641;49.082;8.200;2023-03-22T13:16:41;99772.84;;;17.03;50.32
7200;BME280;3641;49.082;8.200;2023-03-22T13:19:28;99765.66;;;17.02;49.48
7200;BME280;3641;49.082;8.200;2023-03-22T13:22:24;99767.72;;;16.95;48.68
7200;BME280;3641;49.082;8.200;2023-03-22T13:25:00;99761.34;;;16.94;48.08
7200;BME280;3641;49.082;8.200;2023-03-22T13:27:36;99755.81;;;17.06;47.28
7200;BME280;3641;49.082;8.200;2023-03-22T13:30:05;99749.97;;;17.02;47.84
7200;BME280;3641;49.082;8.200;2023-03-22T13:32:45;99746.59;;;17.00;50.57
7200;BME280;3641;49.082;8.200;2023-03-22T13:35:21;99741.16;;;17.17;47.65